Terminal Aerodrome Forecast
Issued by NWS

Home | Current Version | Previous Version | Text Only | Print | Product List | Glossary On
Versions: 1 2 3 4 5 6 7 8 9 10 11 12 13 14 15
000
FTUS42 KGSP 302330
TAFGMU
TAF
KGMU 302330Z 3100/3124 06004KT P6SM FEW060 BKN250
     FM310900 04004KT P6SM SCT050 BKN250
     FM311400 05005KT P6SM SCT050 BKN250
     FM311800 07006KT P6SM SCT060 BKN250=

USA.gov is the U.S. government's official web portal to all federal, state and local government web resources and services.